Time;durP1;ratioP1;P1;durP2;ratioP2;P2;SDS_P1;SDS_P2;PMS_P1;PMS_P2;Temp;Humidity;BMP_temperature;BMP_pressure;BME280_temperature;BME280_humidity;BME280_pressure;Samples;Min_cycle;Max_cycle;Signal;HPM_P1;HPM_P2
2022/09/08 00:01:13;;;;;;;21.73;19.93;;;;;;;;;;5040466;28;24944;-46
2022/09/08 00:03:38;;;;;;;21.80;19.90;;;;;;;;;;5041101;28;24731;-46
2022/09/08 00:06:06;;;;;;;23.02;21.02;;;;;;;;;;5040695;28;24437;-47
2022/09/08 00:08:32;;;;;;;22.95;20.95;;;;;;;;;;5038321;28;24909;-46
2022/09/08 00:10:58;;;;;;;22.60;20.73;;;;;;;;;;5039883;28;24515;-46
2022/09/08 00:13:24;;;;;;;22.20;20.30;;;;;;;;;;5046847;28;24531;-47
2022/09/08 00:15:49;;;;;;;22.60;20.80;;;;;;;;;;5042928;28;24526;-47
2022/09/08 00:18:14;;;;;;;23.90;21.90;;;;;;;;;;5046083;28;24535;-46
2022/09/08 00:20:40;;;;;;;22.33;20.50;;;;;;;;;;5044022;28;24416;-46
2022/09/08 00:23:05;;;;;;;22.63;20.73;;;;;;;;;;5029997;28;24977;-47
2022/09/08 00:25:30;;;;;;;23.60;21.50;;;;;;;;;;5030145;28;24480;-46
2022/09/08 00:27:55;;;;;;;22.30;20.35;;;;;;;;;;5042236;28;24431;-46
2022/09/08 00:30:21;;;;;;;24.97;22.87;;;;;;;;;;5043227;28;24458;-46
2022/09/08 00:32:46;;;;;;;23.80;21.80;;;;;;;;;;5034351;28;25021;-47
2022/09/08 00:35:14;;;;;;;23.03;21.13;;;;;;;;;;5035563;28;24618;-45
2022/09/08 00:37:39;;;;;;;21.25;19.45;;;;;;;;;;5033806;28;25014;-45
2022/09/08 00:40:05;;;;;;;22.70;20.90;;;;;;;;;;5034942;28;24481;-46
2022/09/08 00:42:30;;;;;;;22.27;20.37;;;;;;;;;;5046827;28;24473;-49
2022/09/08 00:44:55;;;;;;;21.58;19.77;;;;;;;;;;5038017;28;24415;-46
2022/09/08 00:47:22;;;;;;;21.10;19.40;;;;;;;;;;5032077;28;24493;-46
2022/09/08 00:49:50;;;;;;;21.80;20.00;;;;;;;;;;5038342;28;24419;-46
2022/09/08 00:52:16;;;;;;;22.30;20.50;;;;;;;;;;5035932;28;24973;-45
2022/09/08 00:54:42;;;;;;;22.85;21.05;;;;;;;;;;5043917;28;24427;-52
2022/09/08 00:57:08;;;;;;;21.33;19.55;;;;;;;;;;5036534;28;24969;-46
2022/09/08 00:59:35;;;;;;;22.30;20.33;;;;;;;;;;5042916;28;24485;-46
2022/09/08 01:02:01;;;;;;;23.70;21.67;;;;;;;;;;5042987;28;24526;-46
2022/09/08 01:04:26;;;;;;;24.48;22.48;;;;;;;;;;5036830;28;24523;-46
2022/09/08 01:12:44;;;;;;;22.02;20.20;;;;;;;;;;5039957;28;24778;-46
2022/09/08 01:15:11;;;;;;;21.55;19.75;;;;;;;;;;5042966;28;24431;-46
2022/09/08 01:17:37;;;;;;;21.37;19.67;;;;;;;;;;5034615;28;24857;-46
2022/09/08 01:20:04;;;;;;;21.83;19.90;;;;;;;;;;5037214;28;24976;-45
2022/09/08 01:22:31;;;;;;;21.80;19.90;;;;;;;;;;5043227;28;24431;-46
2022/09/08 01:25:05;;;;;;;20.05;18.38;;;;;;;;;;5042800;28;24518;-46
2022/09/08 01:27:31;;;;;;;21.50;19.70;;;;;;;;;;5033921;28;24440;-46
2022/09/08 01:29:59;;;;;;;20.37;18.67;;;;;;;;;;5041658;28;24488;-46
2022/09/08 01:32:26;;;;;;;19.92;18.30;;;;;;;;;;5045301;28;24519;-46
2022/09/08 01:34:52;;;;;;;21.42;19.73;;;;;;;;;;5036437;28;24790;-47
2022/09/08 01:37:17;;;;;;;19.25;17.65;;;;;;;;;;5030899;28;24408;-47
2022/09/08 01:39:43;;;;;;;20.27;18.57;;;;;;;;;;5036506;28;25034;-47
2022/09/08 01:42:08;;;;;;;20.00;18.40;;;;;;;;;;5038329;28;24422;-47
2022/09/08 01:44:33;;;;;;;20.37;18.60;;;;;;;;;;5035662;28;24631;-47
2022/09/08 01:46:58;;;;;;;20.60;18.80;;;;;;;;;;5030955;28;24783;-46
2022/09/08 01:49:24;;;;;;;20.43;18.77;;;;;;;;;;5036077;28;25009;-47
2022/09/08 01:51:49;;;;;;;19.57;17.97;;;;;;;;;;5034767;28;24412;-46
2022/09/08 01:54:14;;;;;;;20.75;19.05;;;;;;;;;;5035945;28;24970;-46
2022/09/08 01:56:39;;;;;;;19.90;18.10;;;;;;;;;;5027774;28;24422;-47
2022/09/08 01:59:04;;;;;;;20.30;18.60;;;;;;;;;;5030235;28;24430;-47
2022/09/08 02:01:29;;;;;;;21.50;19.80;;;;;;;;;;5037549;28;24511;-47
2022/09/08 02:03:55;;;;;;;21.80;19.90;;;;;;;;;;5044436;28;24450;-47
2022/09/08 02:06:20;;;;;;;21.60;19.90;;;;;;;;;;5042856;28;24454;-47
2022/09/08 02:08:55;;;;;;;21.50;19.70;;;;;;;;;;5041931;28;24422;-45
2022/09/08 02:11:20;;;;;;;21.65;19.85;;;;;;;;;;5025602;28;24490;-45
2022/09/08 02:13:45;;;;;;;20.10;18.30;;;;;;;;;;5031426;28;24556;-46
2022/09/08 02:16:11;;;;;;;21.47;19.63;;;;;;;;;;5039457;28;24430;-46
2022/09/08 02:18:37;;;;;;;22.97;20.97;;;;;;;;;;5045270;28;24515;-46
2022/09/08 02:21:04;;;;;;;21.65;19.85;;;;;;;;;;5037182;28;24494;-47
2022/09/08 02:23:29;;;;;;;21.02;19.17;;;;;;;;;;5036949;28;24977;-47
2022/09/08 02:25:54;;;;;;;20.58;18.98;;;;;;;;;;5038272;28;24419;-46
2022/09/08 02:28:20;;;;;;;20.30;18.70;;;;;;;;;;5037284;28;24474;-46
2022/09/08 02:30:45;;;;;;;20.83;19.23;;;;;;;;;;5043742;28;24552;-47
2022/09/08 02:33:10;;;;;;;20.55;18.85;;;;;;;;;;5030358;28;24837;-46
2022/09/08 02:35:35;;;;;;;20.27;18.58;;;;;;;;;;5036082;28;24774;-47
2022/09/08 02:38:00;;;;;;;20.60;18.90;;;;;;;;;;5033657;28;24825;-47
2022/09/08 02:40:26;;;;;;;20.50;18.90;;;;;;;;;;5026579;28;26071;-47
2022/09/08 02:42:51;;;;;;;22.20;20.40;;;;;;;;;;5039835;28;24985;-46
2022/09/08 02:45:16;;;;;;;20.37;18.77;;;;;;;;;;5038226;28;24416;-46
2022/09/08 02:47:41;;;;;;;20.17;18.58;;;;;;;;;;5035046;28;24841;-46
2022/09/08 02:50:07;;;;;;;20.10;18.33;;;;;;;;;;5037787;28;24865;-47
2022/09/08 02:52:32;;;;;;;21.10;19.30;;;;;;;;;;5028040;28;24966;-46
2022/09/08 02:54:58;;;;;;;20.25;18.45;;;;;;;;;;5028691;28;24426;-45
2022/09/08 02:57:23;;;;;;;19.53;17.87;;;;;;;;;;5036800;28;24844;-45
2022/09/08 02:59:48;;;;;;;22.08;20.27;;;;;;;;;;5044659;28;24427;-50
2022/09/08 03:02:13;;;;;;;20.58;18.92;;;;;;;;;;5043578;28;24477;-46
2022/09/08 03:04:38;;;;;;;20.43;18.83;;;;;;;;;;5043699;28;25053;-46
2022/09/08 03:07:03;;;;;;;18.80;17.30;;;;;;;;;;5035339;28;24423;-46
2022/09/08 03:09:29;;;;;;;17.67;16.27;;;;;;;;;;5043127;28;24423;-46
2022/09/08 03:11:54;;;;;;;17.40;16.00;;;;;;;;;;5040512;28;24526;-46
2022/09/08 03:14:19;;;;;;;17.25;15.85;;;;;;;;;;5046553;28;24445;-47
2022/09/08 03:16:46;;;;;;;16.02;14.68;;;;;;;;;;5045732;28;24466;-47
2022/09/08 03:19:11;;;;;;;15.45;14.25;;;;;;;;;;5033142;28;24463;-46
2022/09/08 03:21:36;;;;;;;15.93;14.63;;;;;;;;;;5036143;28;24454;-47
2022/09/08 03:24:02;;;;;;;16.23;14.93;;;;;;;;;;5039770;28;24490;-46
2022/09/08 03:26:27;;;;;;;16.00;14.70;;;;;;;;;;5044088;28;25038;-46
2022/09/08 03:28:52;;;;;;;15.55;14.35;;;;;;;;;;5038011;28;24435;-47
2022/09/08 03:31:19;;;;;;;16.23;14.93;;;;;;;;;;5026393;28;25010;-46
2022/09/08 03:33:44;;;;;;;16.13;14.73;;;;;;;;;;5043664;28;24419;-46
2022/09/08 03:36:11;;;;;;;15.50;14.30;;;;;;;;;;5038799;28;24569;-46
2022/09/08 03:38:36;;;;;;;15.77;14.57;;;;;;;;;;5033373;28;24542;-46
2022/09/08 03:41:05;;;;;;;15.00;13.60;;;;;;;;;;5040778;28;24480;-47
2022/09/08 03:43:30;;;;;;;15.25;13.95;;;;;;;;;;5042606;28;24427;-47
2022/09/08 03:45:56;;;;;;;15.38;13.98;;;;;;;;;;5041022;28;24434;-47
2022/09/08 03:48:21;;;;;;;14.07;12.97;;;;;;;;;;5056499;28;25002;-47
2022/09/08 03:50:46;;;;;;;13.88;12.77;;;;;;;;;;5048843;28;24423;-47
2022/09/08 03:53:11;;;;;;;14.85;13.65;;;;;;;;;;5050710;28;25203;-46
2022/09/08 03:55:40;;;;;;;14.40;13.20;;;;;;;;;;5048329;28;24426;-47
2022/09/08 03:58:05;;;;;;;14.90;13.70;;;;;;;;;;5034900;28;24833;-46
2022/09/08 04:00:30;;;;;;;13.75;12.75;;;;;;;;;;5034639;28;25035;-48
2022/09/08 04:02:56;;;;;;;13.10;12.10;;;;;;;;;;5048149;28;24454;-46
2022/09/08 04:05:21;;;;;;;13.90;12.80;;;;;;;;;;5043152;28;24423;-48
2022/09/08 04:07:46;;;;;;;13.25;12.25;;;;;;;;;;5052611;28;24464;-47
2022/09/08 04:10:12;;;;;;;12.70;11.55;;;;;;;;;;5042892;28;25051;-47
2022/09/08 04:12:38;;;;;;;14.20;13.10;;;;;;;;;;5035536;28;24461;-47
2022/09/08 04:15:04;;;;;;;14.55;13.35;;;;;;;;;;5038406;28;24505;-46
2022/09/08 04:17:29;;;;;;;12.77;11.77;;;;;;;;;;5033250;28;24458;-46
2022/09/08 04:19:55;;;;;;;12.50;11.50;;;;;;;;;;5040095;28;24823;-47
2022/09/08 04:22:21;;;;;;;11.95;11.05;;;;;;;;;;5035150;28;24508;-46
2022/09/08 04:24:46;;;;;;;12.30;11.10;;;;;;;;;;5032844;28;25082;-46
2022/09/08 04:27:12;;;;;;;12.82;11.82;;;;;;;;;;5032454;28;24519;-47
2022/09/08 04:29:38;;;;;;;12.73;11.73;;;;;;;;;;5039552;28;24932;-47
2022/09/08 04:32:03;;;;;;;11.52;10.63;;;;;;;;;;5035952;28;24557;-45
2022/09/08 04:34:28;;;;;;;11.80;10.90;;;;;;;;;;5043116;28;24496;-46
2022/09/08 04:36:54;;;;;;;12.90;11.90;;;;;;;;;;5029419;28;24478;-46
2022/09/08 04:39:20;;;;;;;11.93;11.03;;;;;;;;;;5025252;28;24442;-46
2022/09/08 04:41:45;;;;;;;11.40;10.50;;;;;;;;;;5039660;28;24891;-46
2022/09/08 04:44:10;;;;;;;11.90;11.00;;;;;;;;;;5030663;28;25055;-45
2022/09/08 04:46:36;;;;;;;11.60;10.70;;;;;;;;;;5031695;28;24422;-47
2022/09/08 04:49:02;;;;;;;10.43;9.63;;;;;;;;;;5040338;28;24440;-45
2022/09/08 04:51:28;;;;;;;11.23;10.33;;;;;;;;;;5030152;28;24432;-46
2022/09/08 04:53:55;;;;;;;10.90;10.00;;;;;;;;;;5028185;28;24459;-47
2022/09/08 04:56:21;;;;;;;10.80;9.80;;;;;;;;;;5038938;28;24423;-45
2022/09/08 04:58:46;;;;;;;11.40;10.48;;;;;;;;;;5028037;28;24482;-46
2022/09/08 05:01:18;;;;;;;10.50;9.60;;;;;;;;;;5031125;28;24435;-46
2022/09/08 05:03:43;;;;;;;11.93;10.93;;;;;;;;;;5037394;28;24821;-46
2022/09/08 05:06:09;;;;;;;10.90;10.10;;;;;;;;;;5033167;28;24653;-46
2022/09/08 05:08:34;;;;;;;10.93;10.13;;;;;;;;;;5033658;28;24447;-47
2022/09/08 05:11:00;;;;;;;10.50;9.80;;;;;;;;;;5034206;28;24520;-47
2022/09/08 05:13:25;;;;;;;10.40;9.60;;;;;;;;;;5033839;28;24443;-47
2022/09/08 05:15:50;;;;;;;11.00;10.00;;;;;;;;;;5044078;28;24873;-47
2022/09/08 05:18:15;;;;;;;12.07;11.17;;;;;;;;;;5036119;28;24559;-48
2022/09/08 05:20:40;;;;;;;11.17;10.27;;;;;;;;;;5026968;28;24478;-46
2022/09/08 05:23:05;;;;;;;11.60;10.70;;;;;;;;;;5024912;28;24431;-47
2022/09/08 05:25:31;;;;;;;10.98;10.18;;;;;;;;;;5035009;28;24938;-46
2022/09/08 05:27:56;;;;;;;10.82;9.95;;;;;;;;;;5044648;28;24423;-46
2022/09/08 05:30:21;;;;;;;10.80;10.00;;;;;;;;;;5042062;28;24434;-45
2022/09/08 05:32:46;;;;;;;10.75;9.85;;;;;;;;;;5029717;28;24876;-46
2022/09/08 05:35:11;;;;;;;10.70;9.90;;;;;;;;;;5030797;28;24462;-46
2022/09/08 05:37:36;;;;;;;9.75;9.05;;;;;;;;;;5028723;28;24428;-46
2022/09/08 05:40:02;;;;;;;10.68;9.68;;;;;;;;;;5029058;28;24824;-46
2022/09/08 05:42:27;;;;;;;10.57;9.67;;;;;;;;;;5040911;28;24489;-45
2022/09/08 05:44:52;;;;;;;10.10;9.30;;;;;;;;;;5029593;28;24420;-47
2022/09/08 05:47:18;;;;;;;10.00;9.10;;;;;;;;;;5032842;28;24515;-46
2022/09/08 05:49:43;;;;;;;11.27;10.27;;;;;;;;;;5039791;28;24398;-47
2022/09/08 05:52:08;;;;;;;11.03;10.13;;;;;;;;;;5035062;28;24457;-47
2022/09/08 05:54:34;;;;;;;11.30;10.30;;;;;;;;;;5041396;28;24502;-46
2022/09/08 05:57:00;;;;;;;12.00;10.02;;;;;;;;;;5043925;28;24502;-46
2022/09/08 05:59:25;;;;;;;11.20;10.30;;;;;;;;;;5046569;28;24968;-46
2022/09/08 06:01:50;;;;;;;11.43;10.40;;;;;;;;;;5042600;28;24472;-46
2022/09/08 06:04:15;;;;;;;11.25;10.35;;;;;;;;;;5044696;28;24426;-47
2022/09/08 06:06:40;;;;;;;11.20;10.20;;;;;;;;;;5042647;28;24423;-47
2022/09/08 06:09:07;;;;;;;11.67;10.67;;;;;;;;;;5041790;28;24427;-47
2022/09/08 06:11:33;;;;;;;11.73;10.70;;;;;;;;;;5038983;28;24987;-47
2022/09/08 06:13:58;;;;;;;11.43;10.32;;;;;;;;;;5034821;28;24450;-47
2022/09/08 06:16:23;;;;;;;11.70;10.80;;;;;;;;;;5033748;28;24525;-47
2022/09/08 06:18:48;;;;;;;11.20;10.30;;;;;;;;;;5038800;28;25027;-47
2022/09/08 06:21:16;;;;;;;13.63;12.45;;;;;;;;;;5042220;28;24415;-47
2022/09/08 06:23:41;;;;;;;12.65;11.43;;;;;;;;;;5036544;28;24458;-47
2022/09/08 06:26:24;;;;;;;12.18;11.18;;;;;;;;;;5035832;28;24503;-47
2022/09/08 06:29:05;;;;;;;13.00;11.90;;;;;;;;;;5028780;28;24513;-48
2022/09/08 06:31:32;;;;;;;12.20;11.10;;;;;;;;;;5028024;28;24419;-46
2022/09/08 06:34:02;;;;;;;11.82;10.73;;;;;;;;;;5042613;28;24518;-47
2022/09/08 06:36:29;;;;;;;10.80;9.90;;;;;;;;;;5039856;28;24423;-46
2022/09/08 06:38:56;;;;;;;11.02;10.00;;;;;;;;;;5040583;28;24431;-47
2022/09/08 06:41:26;;;;;;;12.00;10.95;;;;;;;;;;5041727;28;24427;-47
2022/09/08 06:43:53;;;;;;;11.40;10.40;;;;;;;;;;5041666;28;24855;-47
2022/09/08 06:46:21;;;;;;;11.80;10.80;;;;;;;;;;5031276;28;24431;-47
2022/09/08 06:48:46;;;;;;;12.05;10.95;;;;;;;;;;5029277;28;24475;-48
2022/09/08 06:51:12;;;;;;;10.63;9.73;;;;;;;;;;5027523;28;24500;-47
2022/09/08 06:53:41;;;;;;;10.67;9.70;;;;;;;;;;5027183;28;24546;-47
2022/09/08 06:56:14;;;;;;;10.25;9.43;;;;;;;;;;5029504;28;24999;-47
2022/09/08 06:58:41;;;;;;;10.60;9.70;;;;;;;;;;5027553;28;25045;-47
2022/09/08 07:01:13;;;;;;;10.18;9.38;;;;;;;;;;5027356;28;24980;-47
2022/09/08 07:03:38;;;;;;;9.82;8.93;;;;;;;;;;5026882;28;24415;-47
2022/09/08 07:06:07;;;;;;;10.20;9.30;;;;;;;;;;5027660;28;24928;-47
2022/09/08 07:08:51;;;;;;;10.63;9.63;;;;;;;;;;5029905;28;24419;-48
2022/09/08 07:11:22;;;;;;;11.90;10.80;;;;;;;;;;5026928;28;24886;-47
2022/09/08 07:14:03;;;;;;;10.18;9.27;;;;;;;;;;5046777;28;24406;-47
2022/09/08 07:16:37;;;;;;;11.20;10.30;;;;;;;;;;5047340;28;24424;-47
2022/09/08 07:19:08;;;;;;;11.23;10.32;;;;;;;;;;5043765;28;24987;-46
2022/09/08 07:21:41;;;;;;;10.80;9.90;;;;;;;;;;5031445;28;24458;-46
2022/09/08 07:24:09;;;;;;;10.85;9.95;;;;;;;;;;5031427;28;24410;-46
2022/09/08 07:26:40;;;;;;;11.90;10.90;;;;;;;;;;5036945;28;24458;-47
2022/09/08 07:29:11;;;;;;;12.30;11.20;;;;;;;;;;5050422;28;24407;-47
2022/09/08 07:31:40;;;;;;;11.20;10.20;;;;;;;;;;5050934;28;24449;-47
2022/09/08 07:34:09;;;;;;;10.80;9.87;;;;;;;;;;5050672;28;24446;-47
2022/09/08 07:36:39;;;;;;;11.25;10.35;;;;;;;;;;5049224;28;24446;-47
2022/09/08 07:39:23;;;;;;;12.50;11.40;;;;;;;;;;5044091;28;24432;-47
2022/09/08 07:41:50;;;;;;;12.30;11.30;;;;;;;;;;5049141;28;24532;-47
2022/09/08 07:44:16;;;;;;;11.25;10.25;;;;;;;;;;5050498;28;24399;-47
2022/09/08 07:46:46;;;;;;;11.70;10.60;;;;;;;;;;5049192;28;24477;-47
2022/09/08 07:49:11;;;;;;;11.25;10.25;;;;;;;;;;5049860;28;24462;-47
2022/09/08 07:51:43;;;;;;;11.70;10.70;;;;;;;;;;5040851;28;24444;-47
2022/09/08 07:54:11;;;;;;;11.23;10.23;;;;;;;;;;5030845;28;24434;-47
2022/09/08 07:56:54;;;;;;;12.20;11.20;;;;;;;;;;5037297;28;24435;-48
2022/09/08 07:59:29;;;;;;;12.52;11.52;;;;;;;;;;5044268;28;24436;-47
2022/09/08 08:02:25;;;;;;;11.98;10.88;;;;;;;;;;5028052;28;24932;-46
2022/09/08 08:05:15;;;;;;;12.30;11.20;;;;;;;;;;5028778;28;24474;-46
2022/09/08 08:07:49;;;;;;;12.00;10.87;;;;;;;;;;5030564;28;24403;-46
2022/09/08 08:10:24;;;;;;;12.47;11.47;;;;;;;;;;5029787;28;24411;-46
2022/09/08 08:13:05;;;;;;;12.75;11.68;;;;;;;;;;5044344;28;24778;-47
2022/09/08 08:15:36;;;;;;;11.40;10.40;;;;;;;;;;5049707;28;24407;-47
2022/09/08 08:18:01;;;;;;;12.52;11.43;;;;;;;;;;5049979;28;24780;-47
2022/09/08 08:20:27;;;;;;;12.10;11.10;;;;;;;;;;5049995;28;24420;-47
2022/09/08 08:22:56;;;;;;;12.00;10.80;;;;;;;;;;5048829;28;24423;-47
2022/09/08 08:25:21;;;;;;;11.70;10.70;;;;;;;;;;5049693;28;24421;-46
2022/09/08 08:27:53;;;;;;;11.35;10.35;;;;;;;;;;5047249;28;24431;-46
2022/09/08 08:30:22;;;;;;;11.63;10.63;;;;;;;;;;5050051;28;24502;-47
2022/09/08 08:32:59;;;;;;;12.70;11.50;;;;;;;;;;5049343;28;24490;-47
2022/09/08 08:35:39;;;;;;;11.95;10.75;;;;;;;;;;5049575;28;24441;-47
2022/09/08 08:38:05;;;;;;;11.23;10.20;;;;;;;;;;5049532;28;24423;-47
2022/09/08 08:40:40;;;;;;;12.50;11.30;;;;;;;;;;5048787;28;24782;-47
2022/09/08 08:43:19;;;;;;;13.23;12.20;;;;;;;;;;5030058;28;24798;-47
2022/09/08 08:45:44;;;;;;;13.70;12.30;;;;;;;;;;5038575;28;24734;-47
2022/09/08 08:48:20;;;;;;;13.45;12.25;;;;;;;;;;5049818;28;24395;-47
2022/09/08 08:50:49;;;;;;;12.63;11.52;;;;;;;;;;5049848;28;24414;-48
2022/09/08 08:53:30;;;;;;;13.40;12.20;;;;;;;;;;5048904;28;24457;-47
2022/09/08 08:56:14;;;;;;;13.57;12.38;;;;;;;;;;5047434;28;24612;-47
2022/09/08 08:58:48;;;;;;;14.73;13.23;;;;;;;;;;5028834;28;24949;-46
2022/09/08 09:01:16;;;;;;;14.10;12.90;;;;;;;;;;5029620;28;24442;-47
2022/09/08 09:03:41;;;;;;;14.45;13.15;;;;;;;;;;5029412;28;24396;-47
2022/09/08 09:06:14;;;;;;;15.70;14.30;;;;;;;;;;5040748;28;24842;-47
2022/09/08 09:08:57;;;;;;;16.42;14.93;;;;;;;;;;5048537;28;24413;-47
2022/09/08 09:11:34;;;;;;;15.57;14.07;;;;;;;;;;5047561;28;24886;-47
2022/09/08 09:14:00;;;;;;;15.75;14.27;;;;;;;;;;5048838;28;24395;-46
2022/09/08 09:16:37;;;;;;;16.67;15.18;;;;;;;;;;5048212;28;24418;-47
2022/09/08 09:19:18;;;;;;;16.15;14.65;;;;;;;;;;5048857;28;25101;-48
2022/09/08 09:22:00;;;;;;;15.52;14.23;;;;;;;;;;5049243;28;24750;-48
2022/09/08 09:24:38;;;;;;;15.50;14.20;;;;;;;;;;5048377;28;24395;-46
2022/09/08 09:27:33;;;;;;;18.40;16.70;;;;;;;;;;5046397;28;24953;-48
2022/09/08 09:30:12;;;;;;;15.57;14.20;;;;;;;;;;5033874;28;24451;-48
2022/09/08 09:32:52;;;;;;;15.77;14.38;;;;;;;;;;5028615;28;24392;-48
2022/09/08 09:35:36;;;;;;;15.93;14.50;;;;;;;;;;5027742;28;24448;-47
2022/09/08 09:38:25;;;;;;;13.00;11.80;;;;;;;;;;5028369;28;24432;-48
2022/09/08 09:41:00;;;;;;;8.77;7.80;;;;;;;;;;5028777;28;24388;-48
2022/09/08 09:43:31;;;;;;;9.25;8.07;;;;;;;;;;5039979;28;24455;-47
2022/09/08 09:46:02;;;;;;;8.23;7.35;;;;;;;;;;5028687;28;24430;-48
2022/09/08 09:48:43;;;;;;;7.80;7.10;;;;;;;;;;5028005;28;24465;-49
2022/09/08 09:51:14;;;;;;;7.72;7.03;;;;;;;;;;5037057;28;24510;-48
2022/09/08 09:53:50;;;;;;;7.30;6.50;;;;;;;;;;5047892;28;24468;-48
2022/09/08 09:56:34;;;;;;;8.13;7.38;;;;;;;;;;5044431;28;24492;-48
2022/09/08 09:59:20;;;;;;;7.95;7.15;;;;;;;;;;5047830;28;24411;-48
2022/09/08 10:02:05;;;;;;;7.63;6.93;;;;;;;;;;5048311;28;24769;-48
2022/09/08 10:04:46;;;;;;;8.70;7.80;;;;;;;;;;5048028;28;24392;-48
2022/09/08 10:07:23;;;;;;;7.80;7.10;;;;;;;;;;5047941;28;24441;-48
2022/09/08 10:10:07;;;;;;;8.25;7.45;;;;;;;;;;5047767;28;24443;-49
2022/09/08 10:12:54;;;;;;;8.45;7.65;;;;;;;;;;5046228;28;24415;-48
2022/09/08 10:15:35;;;;;;;9.50;8.60;;;;;;;;;;5046096;28;24954;-49
2022/09/08 10:18:19;;;;;;;9.10;8.20;;;;;;;;;;5047586;28;24592;-49
2022/09/08 10:21:22;;;;;;;11.00;9.80;;;;;;;;;;5047542;28;25024;-49
2022/09/08 10:23:59;;;;;;;9.00;8.10;;;;;;;;;;5045114;28;24442;-48
2022/09/08 10:26:46;;;;;;;9.68;8.77;;;;;;;;;;5043917;28;24847;-48
2022/09/08 10:29:35;;;;;;;9.00;8.20;;;;;;;;;;5046755;28;24411;-47
2022/09/08 10:32:19;;;;;;;11.02;8.77;;;;;;;;;;5046729;28;24442;-47
2022/09/08 10:34:54;;;;;;;10.00;8.43;;;;;;;;;;5039146;28;24559;-46
2022/09/08 10:37:33;;;;;;;9.70;8.80;;;;;;;;;;5030885;28;24427;-47
2022/09/08 10:40:16;;;;;;;9.60;8.60;;;;;;;;;;5047265;28;24395;-48
2022/09/08 10:42:44;;;;;;;9.65;8.65;;;;;;;;;;5045622;28;24415;-47
2022/09/08 10:45:23;;;;;;;10.70;9.33;;;;;;;;;;5047569;28;24437;-48
2022/09/08 10:47:48;;;;;;;9.63;8.73;;;;;;;;;;5047294;28;24524;-47
2022/09/08 10:50:21;;;;;;;9.40;8.40;;;;;;;;;;5046250;28;24522;-48
2022/09/08 10:53:06;;;;;;;9.90;9.00;;;;;;;;;;5046722;28;25396;-49
2022/09/08 10:55:47;;;;;;;13.13;11.82;;;;;;;;;;5046066;28;24418;-48
2022/09/08 10:58:15;;;;;;;10.25;9.13;;;;;;;;;;5045320;28;24451;-47
2022/09/08 11:00:43;;;;;;;9.90;8.55;;;;;;;;;;5046783;28;24956;-48
2022/09/08 11:03:31;;;;;;;8.88;8.07;;;;;;;;;;5047151;28;24394;-48
2022/09/08 11:06:05;;;;;;;8.00;7.30;;;;;;;;;;5047508;28;24399;-48
2022/09/08 11:08:46;;;;;;;8.13;7.43;;;;;;;;;;5046924;28;24944;-47
2022/09/08 11:11:21;;;;;;;8.87;7.97;;;;;;;;;;5044590;28;24407;-48
2022/09/08 11:14:06;;;;;;;8.70;7.80;;;;;;;;;;5027156;28;24507;-48
2022/09/08 11:16:46;;;;;;;8.90;8.00;;;;;;;;;;5026908;28;24407;-47
2022/09/08 11:19:26;;;;;;;9.82;8.82;;;;;;;;;;5027060;28;24501;-48
2022/09/08 11:22:10;;;;;;;9.60;8.70;;;;;;;;;;5027055;28;24411;-49
2022/09/08 11:24:54;;;;;;;8.77;7.93;;;;;;;;;;5034419;28;24503;-48
2022/09/08 11:27:21;;;;;;;9.80;8.80;;;;;;;;;;5034442;28;24415;-47
2022/09/08 11:29:56;;;;;;;10.00;9.00;;;;;;;;;;5046341;28;25132;-47
2022/09/08 11:32:29;;;;;;;9.00;8.20;;;;;;;;;;5046376;28;24410;-48
2022/09/08 11:35:06;;;;;;;9.90;8.90;;;;;;;;;;5046086;28;24552;-48
2022/09/08 11:37:50;;;;;;;9.70;8.80;;;;;;;;;;5046269;28;24964;-49
2022/09/08 11:40:21;;;;;;;13.25;11.85;;;;;;;;;;5046887;28;24541;-48
2022/09/08 11:42:59;;;;;;;12.02;10.82;;;;;;;;;;5044925;28;24474;-48
2022/09/08 11:45:24;;;;;;;11.43;10.32;;;;;;;;;;5046446;28;25066;-48
2022/09/08 11:47:49;;;;;;;11.02;10.02;;;;;;;;;;5044977;28;24555;-48
2022/09/08 11:50:35;;;;;;;10.23;9.33;;;;;;;;;;5046594;28;24460;-48
2022/09/08 11:53:00;;;;;;;7.20;6.50;;;;;;;;;;5046491;28;24399;-47
2022/09/08 11:55:31;;;;;;;6.10;5.60;;;;;;;;;;5046632;28;24404;-48
2022/09/08 11:58:09;;;;;;;6.18;5.03;;;;;;;;;;5045309;28;24456;-48
2022/09/08 12:00:41;;;;;;;5.20;4.80;;;;;;;;;;5046762;28;24444;-48
2022/09/08 12:03:09;;;;;;;4.70;4.30;;;;;;;;;;5044647;28;24423;-48
2022/09/08 12:05:34;;;;;;;4.30;4.00;;;;;;;;;;5047552;28;24457;-48
2022/09/08 12:08:12;;;;;;;4.20;3.90;;;;;;;;;;5050440;28;24395;-48
2022/09/08 12:10:52;;;;;;;4.33;3.93;;;;;;;;;;5050027;28;24551;-48
2022/09/08 12:13:44;;;;;;;3.60;3.30;;;;;;;;;;5048439;28;24431;-48
2022/09/08 12:16:30;;;;;;;3.80;3.20;;;;;;;;;;5049610;28;24419;-48
2022/09/08 12:19:01;;;;;;;4.15;3.60;;;;;;;;;;5048203;28;24518;-48
2022/09/08 12:21:45;;;;;;;3.30;3.00;;;;;;;;;;5041940;28;24436;-48
2022/09/08 12:24:33;;;;;;;3.80;3.50;;;;;;;;;;5055617;28;24522;-48
2022/09/08 12:27:10;;;;;;;4.30;3.90;;;;;;;;;;5056805;28;24427;-48
2022/09/08 12:29:50;;;;;;;3.75;3.45;;;;;;;;;;5030019;28;24433;-47
2022/09/08 12:32:41;;;;;;;3.50;3.30;;;;;;;;;;5029734;28;24486;-48
2022/09/08 12:35:17;;;;;;;3.40;3.10;;;;;;;;;;5040320;28;24814;-49
2022/09/08 12:38:03;;;;;;;3.20;2.90;;;;;;;;;;5048278;28;24806;-49
2022/09/08 12:40:47;;;;;;;3.10;2.90;;;;;;;;;;5039746;28;24424;-49
2022/09/08 12:43:22;;;;;;;3.40;3.10;;;;;;;;;;5038623;28;24459;-48
2022/09/08 12:45:50;;;;;;;3.40;3.10;;;;;;;;;;5042864;28;24552;-49
2022/09/08 12:48:24;;;;;;;3.20;2.97;;;;;;;;;;5046536;28;24442;-49
2022/09/08 12:50:49;;;;;;;4.60;3.13;;;;;;;;;;5033122;28;25094;-50
2022/09/08 12:53:23;;;;;;;3.15;2.85;;;;;;;;;;5041303;28;24782;-49
2022/09/08 12:56:07;;;;;;;3.40;3.20;;;;;;;;;;5038405;28;24427;-49
2022/09/08 12:58:48;;;;;;;3.42;3.13;;;;;;;;;;5035191;28;24428;-49
2022/09/08 13:01:25;;;;;;;3.20;2.90;;;;;;;;;;5044040;28;24449;-48
2022/09/08 13:03:51;;;;;;;3.55;3.25;;;;;;;;;;5046579;28;24399;-49
2022/09/08 13:06:25;;;;;;;3.08;2.88;;;;;;;;;;5029935;28;24426;-48
2022/09/08 13:08:50;;;;;;;3.50;3.20;;;;;;;;;;5029676;28;24478;-48
2022/09/08 13:11:34;;;;;;;3.60;3.30;;;;;;;;;;5029193;28;25032;-49
2022/09/08 13:14:08;;;;;;;2.97;2.78;;;;;;;;;;5029346;28;24434;-49
2022/09/08 13:16:39;;;;;;;3.38;3.08;;;;;;;;;;5028428;28;25211;-49
2022/09/08 13:19:10;;;;;;;2.63;2.42;;;;;;;;;;5048735;28;24863;-48
2022/09/08 13:21:38;;;;;;;2.70;2.50;;;;;;;;;;5051256;28;24423;-49
2022/09/08 13:24:16;;;;;;;3.20;2.72;;;;;;;;;;5035260;28;24474;-49
2022/09/08 13:26:41;;;;;;;2.38;2.17;;;;;;;;;;5024224;28;24432;-49
2022/09/08 13:29:17;;;;;;;2.90;2.70;;;;;;;;;;5036574;28;24419;-49
2022/09/08 13:31:45;;;;;;;2.60;2.30;;;;;;;;;;5035516;28;24427;-49
2022/09/08 13:34:10;;;;;;;2.50;2.30;;;;;;;;;;5023340;28;24431;-50
2022/09/08 13:36:41;;;;;;;2.38;2.20;;;;;;;;;;5033655;28;24438;-46
2022/09/08 13:39:12;;;;;;;2.22;2.10;;;;;;;;;;5038843;28;24445;-47
2022/09/08 13:41:37;;;;;;;2.80;2.40;;;;;;;;;;5040000;28;24925;-49
2022/09/08 13:44:21;;;;;;;3.80;2.13;;;;;;;;;;5034488;28;24508;-48
2022/09/08 13:46:49;;;;;;;1.92;1.83;;;;;;;;;;5027871;28;24508;-47
2022/09/08 13:49:17;;;;;;;1.80;1.70;;;;;;;;;;5036756;28;24437;-48
2022/09/08 13:51:50;;;;;;;1.80;1.70;;;;;;;;;;5065208;28;24994;-48
2022/09/08 13:54:35;;;;;;;1.90;1.80;;;;;;;;;;5038584;28;24474;-48
2022/09/08 13:57:00;;;;;;;1.90;1.80;;;;;;;;;;5038237;28;24443;-48
2022/09/08 13:59:44;;;;;;;2.53;1.83;;;;;;;;;;5031209;28;24412;-48
2022/09/08 14:02:27;;;;;;;1.60;1.50;;;;;;;;;;5031610;28;24427;-48
2022/09/08 14:04:57;;;;;;;1.60;1.50;;;;;;;;;;5048576;28;24434;-48
2022/09/08 14:07:24;;;;;;;1.80;1.70;;;;;;;;;;5064251;28;24487;-48
2022/09/08 14:10:08;;;;;;;1.90;1.80;;;;;;;;;;5060444;28;24419;-48
2022/09/08 14:12:33;;;;;;;2.20;1.60;;;;;;;;;;5046789;28;24431;-48
2022/09/08 14:15:18;;;;;;;1.80;1.70;;;;;;;;;;5044038;28;24816;-47
2022/09/08 14:17:43;;;;;;;1.60;1.50;;;;;;;;;;5029068;28;24458;-47
2022/09/08 14:20:26;;;;;;;1.88;1.30;;;;;;;;;;5043984;28;24447;-48
2022/09/08 14:23:05;;;;;;;1.58;1.48;;;;;;;;;;5030896;28;24427;-48
2022/09/08 14:25:32;;;;;;;1.85;1.55;;;;;;;;;;5033693;28;24467;-49
2022/09/08 14:28:00;;;;;;;1.50;1.40;;;;;;;;;;5034834;28;24739;-48
2022/09/08 14:30:40;;;;;;;2.03;1.63;;;;;;;;;;5027282;28;24426;-48
2022/09/08 14:33:16;;;;;;;1.80;1.70;;;;;;;;;;5044626;28;24581;-48
2022/09/08 14:35:45;;;;;;;1.40;1.30;;;;;;;;;;5034400;28;24443;-48
2022/09/08 14:38:35;;;;;;;1.35;1.30;;;;;;;;;;5027472;28;24558;-49
2022/09/08 14:41:09;;;;;;;1.40;1.30;;;;;;;;;;5036864;28;24435;-48
2022/09/08 14:43:42;;;;;;;1.50;1.40;;;;;;;;;;5047398;28;24765;-48
2022/09/08 14:46:10;;;;;;;1.90;1.40;;;;;;;;;;5028676;28;24439;-48
2022/09/08 14:48:49;;;;;;;1.00;1.00;;;;;;;;;;5028371;28;24466;-47
2022/09/08 14:51:30;;;;;;;1.60;1.40;;;;;;;;;;5026409;28;25025;-48
2022/09/08 14:54:02;;;;;;;1.40;1.40;;;;;;;;;;5024108;28;24485;-47